createdAt,value
2019-02-03T00:02:16.953Z,57.80
2019-02-03T00:04:52.041Z,62.35
2019-02-03T00:07:23.073Z,60.55
2019-02-03T00:10:06.745Z,67.45
2019-02-03T00:12:35.790Z,65.25
2019-02-03T00:15:06.010Z,62.62
2019-02-03T00:17:37.011Z,63.52
2019-02-03T00:20:09.456Z,56.90
2019-02-03T00:22:50.897Z,65.03
2019-02-03T00:26:08.317Z,67.90
2019-02-03T00:28:37.448Z,72.75
2019-02-03T00:31:08.245Z,78.47
2019-02-03T00:33:46.325Z,64.50
2019-02-03T00:36:26.490Z,63.87
2019-02-03T00:39:01.663Z,57.23
2019-02-03T00:41:31.720Z,50.73
2019-02-03T00:44:00.789Z,47.25
2019-02-03T00:46:42.932Z,48.38
2019-02-03T00:49:14.905Z,51.88
2019-02-03T00:51:54.905Z,56.98
2019-02-03T00:54:32.757Z,51.37
2019-02-03T00:57:07.736Z,48.40
2019-02-03T00:59:44.577Z,44.70
2019-02-03T01:02:30.762Z,52.17
2019-02-03T01:05:21.049Z,53.90
2019-02-03T01:08:02.597Z,49.90
2019-02-03T01:10:37.767Z,49.73
2019-02-03T01:13:11.706Z,50.25
2019-02-03T01:15:41.752Z,54.33
2019-02-03T01:18:10.821Z,54.98
2019-02-03T01:20:39.833Z,47.58
2019-02-03T01:23:24.041Z,67.27
2019-02-03T01:26:00.063Z,53.75
2019-02-03T01:28:29.142Z,59.63
2019-02-03T01:31:13.746Z,55.63
2019-02-03T01:33:45.731Z,52.33
2019-02-03T01:36:33.995Z,56.68
2019-02-03T01:39:08.058Z,45.80
2019-02-03T01:41:43.097Z,56.28
2019-02-03T01:44:23.003Z,56.63
2019-02-03T01:46:50.988Z,51.08
2019-02-03T01:49:20.161Z,43.20
2019-02-03T01:51:51.223Z,52.45
2019-02-03T01:54:32.142Z,62.95
2019-02-03T01:57:40.260Z,54.38
2019-02-03T02:00:17.710Z,52.62
2019-02-03T02:02:48.746Z,55.80
2019-02-03T02:05:30.072Z,63.83
2019-02-03T02:08:00.049Z,65.35
2019-02-03T02:10:29.133Z,67.47
2019-02-03T02:12:58.317Z,68.02
2019-02-03T02:15:29.473Z,78.65
2019-02-03T02:17:58.486Z,133.18
2019-02-03T02:20:28.222Z,99.00
2019-02-03T02:23:03.312Z,111.62
2019-02-03T02:25:32.261Z,94.35
2019-02-03T02:28:07.466Z,81.75
2019-02-03T02:30:36.533Z,105.72
2019-02-03T02:33:05.628Z,80.07
2019-02-03T02:35:36.673Z,68.83
2019-02-03T02:38:07.460Z,71.97
2019-02-03T02:40:36.630Z,61.83
2019-02-03T02:43:14.681Z,67.72
2019-02-03T02:45:43.665Z,60.52
2019-02-03T02:48:12.674Z,60.33
2019-02-03T02:50:51.651Z,64.27
2019-02-03T02:53:20.573Z,60.03
2019-02-03T02:55:49.514Z,65.62
2019-02-03T02:58:27.938Z,102.22
2019-02-03T03:01:12.070Z,78.47
2019-02-03T03:03:50.173Z,74.95
2019-02-03T03:06:30.243Z,71.97
2019-02-03T03:09:02.838Z,52.60
2019-02-03T03:11:38.096Z,54.40
2019-02-03T03:14:09.174Z,61.45
2019-02-03T03:16:48.250Z,74.92
2019-02-03T03:19:23.218Z,75.05
2019-02-03T03:21:53.310Z,99.07
2019-02-03T03:24:22.397Z,121.80
2019-02-03T03:26:52.457Z,106.87
2019-02-03T03:29:21.401Z,95.25
2019-02-03T03:31:57.634Z,86.05
2019-02-03T03:34:28.698Z,69.25
2019-02-03T03:36:58.543Z,180.42
2019-02-03T03:39:46.060Z,112.52
2019-02-03T03:42:15.596Z,196.65
2019-02-03T03:44:44.614Z,239.08
2019-02-03T03:47:15.566Z,428.30
2019-02-03T03:49:44.579Z,319.93
2019-02-03T03:52:13.649Z,208.40
2019-02-03T03:54:43.723Z,130.75
2019-02-03T03:57:13.782Z,176.97
2019-02-03T03:59:42.813Z,156.75
2019-02-03T04:02:11.784Z,151.47
2019-02-03T04:04:58.893Z,127.38
2019-02-03T04:07:27.904Z,101.45
2019-02-03T04:09:56.881Z,73.33
2019-02-03T04:12:26.844Z,103.00
2019-02-03T04:14:55.895Z,117.05
2019-02-03T04:17:24.873Z,176.15
2019-02-03T04:19:58.847Z,204.18
2019-02-03T04:22:36.887Z,105.58
2019-02-03T04:25:06.218Z,277.60
2019-02-03T04:27:35.188Z,384.20
2019-02-03T04:30:04.661Z,225.28
2019-02-03T04:32:33.646Z,328.02
2019-02-03T04:35:02.487Z,363.77
2019-02-03T04:37:31.408Z,400.80
2019-02-03T04:40:00.314Z,131.70
2019-02-03T04:42:29.869Z,220.52
2019-02-03T04:44:58.770Z,370.60
2019-02-03T04:47:27.866Z,371.62
2019-02-03T04:49:56.774Z,274.80
2019-02-03T04:52:25.737Z,279.25
2019-02-03T04:54:54.888Z,251.73
2019-02-03T04:57:23.724Z,92.17
2019-02-03T04:59:53.004Z,222.88
2019-02-03T05:02:21.842Z,106.22
2019-02-03T05:04:51.001Z,205.87
2019-02-03T05:07:19.898Z,422.52
2019-02-03T05:09:48.724Z,183.78
2019-02-03T05:12:17.553Z,143.00
2019-02-03T05:14:46.665Z,371.07
2019-02-03T05:17:18.924Z,282.35
2019-02-03T05:19:46.657Z,213.72
2019-02-03T05:22:15.477Z,320.77
2019-02-03T05:24:44.326Z,341.30
2019-02-03T05:27:13.157Z,101.75
2019-02-03T05:29:42.085Z,97.27
2019-02-03T05:32:11.051Z,118.47
2019-02-03T05:34:40.328Z,120.30
2019-02-03T05:37:09.601Z,136.92
2019-02-03T05:39:38.457Z,196.43
2019-02-03T05:42:07.280Z,250.82
2019-02-03T05:44:36.114Z,260.02
2019-02-03T05:47:05.101Z,342.62
2019-02-03T05:49:33.917Z,237.08
2019-02-03T05:52:10.756Z,244.05
2019-02-03T05:54:39.668Z,186.55
2019-02-03T05:57:08.518Z,424.75
2019-02-03T05:59:37.453Z,434.15
2019-02-03T06:02:06.437Z,309.48
2019-02-03T06:04:35.323Z,214.40
2019-02-03T06:07:04.338Z,348.13
2019-02-03T06:09:36.860Z,341.98
2019-02-03T06:12:04.414Z,60.33
2019-02-03T06:14:33.230Z,61.77
2019-02-03T06:17:02.132Z,56.45
2019-02-03T06:19:31.038Z,65.08
2019-02-03T06:21:59.949Z,73.78
2019-02-03T06:24:29.026Z,60.65
2019-02-03T06:26:57.938Z,65.35
2019-02-03T06:29:26.826Z,60.63
2019-02-03T06:31:55.782Z,57.60
2019-02-03T06:34:25.808Z,76.77
2019-02-03T06:36:57.213Z,66.90
2019-02-03T06:39:27.179Z,64.05
2019-02-03T06:41:56.362Z,77.05
2019-02-03T06:44:25.383Z,71.90
2019-02-03T06:47:17.418Z,66.28
2019-02-03T06:49:46.421Z,74.67
2019-02-03T06:52:18.874Z,71.55
2019-02-03T06:54:47.897Z,62.45
2019-02-03T06:57:16.834Z,74.50
2019-02-03T06:59:50.874Z,69.80
2019-02-03T07:02:19.860Z,86.22
2019-02-03T07:04:48.933Z,72.62
2019-02-03T07:07:17.849Z,70.60
2019-02-03T07:09:59.973Z,89.83
2019-02-03T07:12:23.870Z,76.17
2019-02-03T07:14:53.741Z,72.50
2019-02-03T07:17:23.742Z,83.95
2019-02-03T07:19:54.870Z,76.10
2019-02-03T07:22:29.958Z,83.33
2019-02-03T07:24:58.814Z,74.35
2019-02-03T07:27:27.934Z,85.90
2019-02-03T07:29:56.843Z,86.90
2019-02-03T07:32:25.869Z,88.82
2019-02-03T07:35:01.675Z,80.45
2019-02-03T07:37:30.742Z,93.47
2019-02-03T07:40:12.084Z,87.25
2019-02-03T07:42:33.429Z,99.85
2019-02-03T07:45:02.349Z,98.05
2019-02-03T07:47:34.484Z,76.42
2019-02-03T07:50:04.283Z,86.72
2019-02-03T07:52:35.322Z,85.47
2019-02-03T07:55:04.856Z,83.00
2019-02-03T07:57:33.981Z,86.05
2019-02-03T08:00:03.079Z,85.80
2019-02-03T08:02:33.087Z,80.15
2019-02-03T08:05:01.967Z,107.52
2019-02-03T08:07:30.963Z,108.42
2019-02-03T08:10:01.044Z,98.85
2019-02-03T08:12:32.269Z,97.05
2019-02-03T08:15:03.545Z,79.20
2019-02-03T08:17:48.075Z,91.90
2019-02-03T08:20:17.365Z,82.10
2019-02-03T08:22:52.835Z,92.97
2019-02-03T08:25:22.039Z,78.85
2019-02-03T08:27:53.229Z,93.40
2019-02-03T08:30:33.206Z,91.42
2019-02-03T08:33:08.297Z,84.60
2019-02-03T08:35:43.173Z,95.45
2019-02-03T08:38:12.279Z,84.95
2019-02-03T08:40:41.396Z,76.65
2019-02-03T08:43:19.326Z,72.65
2019-02-03T08:45:51.460Z,85.75
2019-02-03T08:48:22.003Z,93.72
2019-02-03T08:50:54.294Z,92.02
2019-02-03T08:53:23.383Z,96.20
2019-02-03T08:55:54.728Z,93.10
2019-02-03T08:58:23.210Z,96.05
2019-02-03T09:00:52.348Z,102.05
2019-02-03T09:03:21.580Z,110.65
2019-02-03T09:05:50.635Z,86.28
2019-02-03T09:08:20.717Z,101.70
2019-02-03T09:10:49.776Z,68.47
2019-02-03T09:13:18.808Z,98.10
2019-02-03T09:15:58.154Z,93.52
2019-02-03T09:18:34.978Z,87.53
2019-02-03T09:21:04.910Z,88.10
2019-02-03T09:23:35.856Z,82.90
2019-02-03T09:26:08.338Z,79.22
2019-02-03T09:28:36.997Z,81.47
2019-02-03T09:31:07.207Z,76.92
2019-02-03T09:33:39.510Z,82.75
2019-02-03T09:36:08.617Z,83.27
2019-02-03T09:38:47.854Z,80.40
2019-02-03T09:41:16.902Z,72.58
2019-02-03T09:43:45.968Z,76.12
2019-02-03T09:46:14.993Z,77.25
2019-02-03T09:48:44.026Z,71.17
2019-02-03T09:51:13.203Z,84.15
2019-02-03T09:53:42.253Z,68.02
2019-02-03T09:56:11.247Z,62.23
2019-02-03T09:58:40.245Z,74.15
2019-02-03T10:01:09.266Z,88.65
2019-02-03T10:03:38.185Z,67.55
2019-02-03T10:06:07.518Z,84.17
2019-02-03T10:08:41.027Z,65.03
2019-02-03T10:11:22.849Z,58.78
2019-02-03T10:13:51.870Z,58.75
2019-02-03T10:16:22.884Z,72.50
2019-02-03T10:18:51.921Z,52.70
2019-02-03T10:21:20.819Z,58.80
2019-02-03T10:23:49.863Z,60.65
2019-02-03T10:26:21.793Z,60.10
2019-02-03T10:28:53.913Z,48.38
2019-02-03T10:31:23.014Z,60.20
2019-02-03T10:33:56.280Z,52.35
2019-02-03T10:36:25.515Z,57.88
2019-02-03T10:38:55.635Z,36.40
2019-02-03T10:41:24.622Z,52.78
2019-02-03T10:43:56.202Z,54.00
2019-02-03T10:46:24.558Z,52.60
2019-02-03T10:48:53.618Z,55.52
2019-02-03T10:51:23.803Z,38.78
2019-02-03T10:53:53.272Z,48.68
2019-02-03T10:56:22.519Z,45.10
2019-02-03T10:58:51.632Z,44.55
2019-02-03T11:01:20.758Z,42.10
2019-02-03T11:03:49.833Z,48.05
2019-02-03T11:06:18.971Z,46.42
2019-02-03T11:08:48.102Z,50.58
2019-02-03T11:11:19.810Z,41.77
2019-02-03T11:13:53.518Z,47.65
2019-02-03T11:16:24.546Z,52.70
2019-02-03T11:18:54.805Z,41.80
2019-02-03T11:21:23.864Z,34.92
2019-02-03T11:23:52.850Z,45.17
2019-02-03T11:26:22.354Z,38.60
2019-02-03T11:28:51.526Z,41.33
2019-02-03T11:31:20.681Z,41.63
2019-02-03T11:33:53.859Z,39.60
2019-02-03T11:36:22.995Z,39.75
2019-02-03T11:38:52.065Z,34.38
2019-02-03T11:41:28.403Z,37.83
2019-02-03T11:43:57.371Z,40.45
2019-02-03T11:46:26.358Z,36.40
2019-02-03T11:48:55.475Z,38.45
2019-02-03T11:51:25.594Z,39.78
2019-02-03T11:53:54.700Z,38.33
2019-02-03T11:56:23.757Z,43.63
2019-02-03T11:58:52.799Z,43.75
2019-02-03T12:01:22.891Z,44.15
2019-02-03T12:03:51.959Z,40.15
2019-02-03T12:06:20.928Z,40.38
2019-02-03T12:08:55.346Z,40.15
2019-02-03T12:11:24.290Z,38.75
2019-02-03T12:13:55.510Z,35.90
2019-02-03T12:16:24.532Z,36.65
2019-02-03T12:18:53.389Z,40.75
2019-02-03T12:21:22.395Z,38.83
2019-02-03T12:23:51.320Z,37.33
2019-02-03T12:26:20.337Z,45.08
2019-02-03T12:28:49.209Z,37.73
2019-02-03T12:31:18.146Z,38.48
2019-02-03T12:33:47.387Z,42.15
2019-02-03T12:36:16.425Z,38.90
2019-02-03T12:38:47.777Z,36.42
2019-02-03T12:41:19.310Z,39.03
2019-02-03T12:43:48.492Z,41.25
2019-02-03T12:46:18.603Z,35.58
2019-02-03T12:48:49.643Z,40.30
2019-02-03T12:51:18.722Z,32.83
2019-02-03T12:53:47.632Z,33.00
2019-02-03T12:56:16.578Z,37.13
2019-02-03T12:58:45.488Z,36.98
2019-02-03T13:01:15.047Z,38.35
2019-02-03T13:03:43.953Z,39.00
2019-02-03T13:06:13.178Z,37.45
2019-02-03T13:08:42.263Z,44.75
2019-02-03T13:11:11.169Z,40.30
2019-02-03T13:13:47.996Z,34.50
2019-02-03T13:16:20.649Z,47.30
2019-02-03T13:18:47.761Z,42.48
2019-02-03T13:21:16.601Z,40.98
2019-02-03T13:23:45.524Z,37.45
2019-02-03T13:26:14.506Z,42.48
2019-02-03T13:28:43.438Z,39.45
2019-02-03T13:31:12.460Z,44.70
2019-02-03T13:33:41.374Z,50.35
2019-02-03T13:36:10.367Z,45.40
2019-02-03T13:38:39.331Z,44.70
2019-02-03T13:41:08.638Z,46.00
2019-02-03T13:43:37.573Z,52.88
2019-02-03T13:46:06.617Z,44.83
2019-02-03T13:48:35.592Z,44.27
2019-02-03T13:51:05.394Z,48.00
2019-02-03T13:53:34.298Z,47.60
2019-02-03T13:56:03.308Z,47.03
2019-02-03T13:58:37.068Z,48.13
2019-02-03T14:01:03.091Z,47.30
2019-02-03T14:03:32.341Z,45.70
2019-02-03T14:06:01.461Z,54.08
2019-02-03T14:08:30.558Z,49.27
2019-02-03T14:11:00.550Z,49.00
2019-02-03T14:13:31.651Z,47.67
2019-02-03T14:16:01.666Z,46.45
2019-02-03T14:18:30.592Z,48.38
2019-02-03T14:20:59.878Z,54.98
2019-02-03T14:23:28.814Z,48.30
2019-02-03T14:25:58.169Z,50.63
2019-02-03T14:28:28.067Z,47.90
2019-02-03T14:30:57.042Z,48.42
2019-02-03T14:33:26.035Z,43.73
2019-02-03T14:35:54.953Z,49.15
2019-02-03T14:38:23.957Z,48.30
2019-02-03T14:40:53.968Z,45.75
2019-02-03T14:43:23.154Z,46.68
2019-02-03T14:45:52.142Z,47.95
2019-02-03T14:48:21.622Z,52.48
2019-02-03T14:50:50.597Z,45.60
2019-02-03T14:53:19.579Z,47.48
2019-02-03T14:55:51.750Z,42.40
2019-02-03T14:58:20.190Z,49.70
2019-02-03T15:00:52.869Z,44.90
2019-02-03T15:03:23.615Z,50.23
2019-02-03T15:05:52.635Z,47.27
2019-02-03T15:08:21.844Z,53.68
2019-02-03T15:10:50.794Z,46.45
2019-02-03T15:13:28.991Z,53.25
2019-02-03T15:16:14.260Z,43.87
2019-02-03T15:18:43.289Z,47.65
2019-02-03T15:21:13.687Z,47.93
2019-02-03T15:23:42.846Z,46.85
2019-02-03T15:26:12.048Z,48.80
2019-02-03T15:28:45.339Z,47.83
2019-02-03T15:31:14.402Z,52.15
2019-02-03T15:33:45.490Z,47.05
2019-02-03T15:36:20.310Z,39.83
2019-02-03T15:38:56.170Z,47.43
2019-02-03T15:41:25.265Z,49.40
2019-02-03T15:44:13.009Z,53.38
2019-02-03T15:46:41.841Z,48.58
2019-02-03T15:49:10.886Z,44.18
2019-02-03T15:51:48.255Z,47.53
2019-02-03T15:54:17.305Z,48.20
2019-02-03T15:56:48.329Z,52.53
2019-02-03T15:59:17.990Z,51.98
2019-02-03T16:01:47.066Z,43.58
2019-02-03T16:04:23.150Z,44.53
2019-02-03T16:06:58.273Z,52.73
2019-02-03T16:09:27.307Z,46.75
2019-02-03T16:11:59.354Z,52.33
2019-02-03T16:14:35.331Z,45.23
2019-02-03T16:17:16.734Z,48.30
2019-02-03T16:19:46.663Z,52.73
2019-02-03T16:22:15.694Z,47.83
2019-02-03T16:24:52.898Z,43.55
2019-02-03T16:27:22.902Z,41.53
2019-02-03T16:29:51.835Z,48.17
2019-02-03T16:32:30.198Z,46.35
2019-02-03T16:34:59.250Z,41.45
2019-02-03T16:37:35.263Z,44.80
2019-02-03T16:40:06.739Z,44.00
2019-02-03T16:42:35.915Z,52.40
2019-02-03T16:45:06.634Z,46.70
2019-02-03T16:47:35.653Z,45.30
2019-02-03T16:50:11.904Z,52.13
2019-02-03T16:52:40.891Z,44.23
2019-02-03T16:55:10.415Z,41.20
2019-02-03T16:57:40.511Z,40.33
2019-02-03T17:00:11.532Z,46.20
2019-02-03T17:02:42.564Z,48.05
2019-02-03T17:05:25.191Z,47.55
2019-02-03T17:07:44.362Z,43.42
2019-02-03T17:10:14.617Z,40.03
2019-02-03T17:12:44.802Z,37.73
2019-02-03T17:15:35.118Z,41.23
2019-02-03T17:18:04.729Z,41.15
2019-02-03T17:20:33.840Z,39.83
2019-02-03T17:23:04.054Z,41.35
2019-02-03T17:25:37.151Z,42.13
2019-02-03T17:28:06.235Z,39.05
2019-02-03T17:30:35.430Z,43.08
2019-02-03T17:33:04.859Z,36.08
2019-02-03T17:35:54.121Z,38.45
2019-02-03T17:38:16.694Z,34.55
2019-02-03T17:40:45.876Z,36.05
2019-02-03T17:43:16.859Z,32.75
2019-02-03T17:45:46.953Z,38.25
2019-02-03T17:48:16.912Z,38.48
2019-02-03T17:50:46.934Z,36.88
2019-02-03T17:53:15.938Z,36.68
2019-02-03T17:55:45.026Z,39.23
2019-02-03T17:58:13.964Z,45.67
2019-02-03T18:01:04.151Z,33.85
2019-02-03T18:03:33.097Z,36.60
2019-02-03T18:06:02.359Z,37.35
2019-02-03T18:08:31.361Z,35.03
2019-02-03T18:11:00.296Z,35.25
2019-02-03T18:13:29.224Z,33.15
2019-02-03T18:15:58.234Z,37.70
2019-02-03T18:18:27.266Z,34.25
2019-02-03T18:20:56.250Z,39.25
2019-02-03T18:23:25.337Z,38.20
2019-02-03T18:25:54.311Z,39.67
2019-02-03T18:28:23.331Z,29.82
2019-02-03T18:30:52.310Z,35.75
2019-02-03T18:33:21.302Z,35.88
2019-02-03T18:35:50.374Z,31.00
2019-02-03T18:38:19.441Z,35.08
2019-02-03T18:40:48.366Z,29.10
2019-02-03T18:43:19.782Z,31.80
2019-02-03T18:45:51.542Z,30.90
2019-02-03T18:48:20.550Z,32.58
2019-02-03T18:50:49.405Z,25.68
2019-02-03T18:53:19.986Z,26.65
2019-02-03T18:55:48.950Z,27.45
2019-02-03T18:58:17.943Z,30.97
2019-02-03T19:00:46.950Z,24.40
2019-02-03T19:03:19.065Z,28.27
2019-02-03T19:05:48.064Z,24.50
2019-02-03T19:08:17.002Z,27.50
2019-02-03T19:10:45.978Z,23.87
2019-02-03T19:13:15.004Z,28.57
2019-02-03T19:15:44.374Z,20.02
2019-02-03T19:18:13.482Z,22.85
2019-02-03T19:20:45.579Z,20.23
2019-02-03T19:23:16.588Z,21.30
2019-02-03T19:25:46.614Z,22.55
2019-02-03T19:28:16.061Z,26.52
2019-02-03T19:30:45.003Z,22.35
2019-02-03T19:33:13.902Z,21.97
2019-02-03T19:35:42.858Z,17.98
2019-02-03T19:38:11.863Z,21.15
2019-02-03T19:40:40.859Z,20.68
2019-02-03T19:43:10.241Z,18.20
2019-02-03T19:45:39.186Z,26.35
2019-02-03T19:48:08.262Z,16.48
2019-02-03T19:50:42.143Z,22.50
2019-02-03T19:53:18.210Z,18.05
2019-02-03T19:55:49.081Z,18.98
2019-02-03T19:58:18.063Z,18.85
2019-02-03T20:00:50.231Z,20.75
2019-02-03T20:03:20.177Z,21.27
2019-02-03T20:05:49.228Z,22.15
2019-02-03T20:08:18.521Z,18.67
2019-02-03T20:10:47.605Z,19.25
2019-02-03T20:13:16.640Z,18.35
2019-02-03T20:15:45.713Z,20.85
2019-02-03T20:18:14.830Z,24.72
2019-02-03T20:20:44.921Z,19.07
2019-02-03T20:23:14.960Z,22.30
2019-02-03T20:25:44.727Z,22.13
2019-02-03T20:28:13.891Z,19.80
2019-02-03T20:30:42.910Z,20.08
2019-02-03T20:33:11.771Z,23.52
2019-02-03T20:35:40.807Z,20.72
2019-02-03T20:38:09.806Z,21.15
2019-02-03T20:40:41.179Z,17.98
2019-02-03T20:43:11.302Z,25.17
2019-02-03T20:45:49.052Z,20.17
2019-02-03T20:48:12.270Z,19.32
2019-02-03T20:50:42.665Z,22.07
2019-02-03T20:53:11.743Z,19.57
2019-02-03T20:55:41.714Z,18.95
2019-02-03T20:58:12.808Z,23.32
2019-02-03T21:00:41.914Z,20.70
2019-02-03T21:03:10.936Z,19.90
2019-02-03T21:05:39.989Z,17.67
2019-02-03T21:08:09.108Z,14.90
2019-02-03T21:10:38.290Z,20.57
2019-02-03T21:13:11.577Z,15.90
2019-02-03T21:15:38.446Z,18.35
2019-02-03T21:18:09.858Z,18.98
2019-02-03T21:20:38.805Z,20.43
2019-02-03T21:23:13.954Z,20.52
2019-02-03T21:25:54.259Z,17.50
2019-02-03T21:28:24.206Z,16.48
2019-02-03T21:30:55.203Z,16.62
2019-02-03T21:33:24.401Z,16.90
2019-02-03T21:35:53.525Z,15.15
2019-02-03T21:38:22.450Z,15.88
2019-02-03T21:40:51.426Z,18.27
2019-02-03T21:43:21.542Z,22.30
2019-02-03T21:45:50.534Z,18.57
2019-02-03T21:48:20.785Z,19.57
2019-02-03T21:50:49.747Z,14.55
2019-02-03T21:53:18.721Z,14.20
2019-02-03T21:55:47.815Z,14.00
2019-02-03T21:58:16.859Z,17.15
2019-02-03T22:00:45.919Z,18.73
2019-02-03T22:03:14.996Z,15.58
2019-02-03T22:05:44.028Z,17.07
2019-02-03T22:08:13.076Z,16.12
2019-02-03T22:10:42.407Z,14.25
2019-02-03T22:13:11.479Z,13.53
2019-02-03T22:15:40.558Z,15.93
2019-02-03T22:18:09.653Z,16.30
2019-02-03T22:20:38.679Z,16.60
2019-02-03T22:23:07.779Z,13.90
2019-02-03T22:25:37.822Z,15.75
2019-02-03T22:28:06.851Z,22.02
2019-02-03T22:30:40.473Z,15.88
2019-02-03T22:33:09.646Z,16.30
2019-02-03T22:35:38.792Z,16.52
2019-02-03T22:38:09.597Z,16.45
2019-02-03T22:40:38.649Z,16.80
2019-02-03T22:43:07.766Z,16.90
2019-02-03T22:45:36.689Z,15.20
2019-02-03T22:48:06.975Z,15.70
2019-02-03T22:50:36.040Z,15.63
2019-02-03T22:53:05.274Z,16.80
2019-02-03T22:55:34.286Z,15.70
2019-02-03T22:58:03.370Z,15.93
2019-02-03T23:01:04.465Z,20.72
2019-02-03T23:03:56.734Z,17.67
2019-02-03T23:06:27.543Z,17.25
2019-02-03T23:09:00.609Z,23.50
2019-02-03T23:11:29.590Z,23.83
2019-02-03T23:13:58.658Z,17.80
2019-02-03T23:16:27.707Z,15.68
2019-02-03T23:18:56.770Z,17.95
2019-02-03T23:21:25.868Z,18.00
2019-02-03T23:23:54.869Z,19.80
2019-02-03T23:26:23.853Z,16.82
2019-02-03T23:28:52.884Z,14.50
2019-02-03T23:31:21.832Z,19.60
2019-02-03T23:33:50.765Z,20.97
2019-02-03T23:36:19.787Z,18.00
2019-02-03T23:38:48.798Z,18.27
2019-02-03T23:41:17.792Z,18.32
2019-02-03T23:43:46.818Z,20.23
2019-02-03T23:46:15.811Z,17.05
2019-02-03T23:48:44.715Z,17.52
2019-02-03T23:51:13.761Z,26.02
2019-02-03T23:53:42.690Z,16.05
2019-02-03T23:56:11.631Z,14.98
2019-02-03T23:58:40.621Z,18.12
